sensor_id;sensor_type;location;lat;lon;timestamp;P1;durP1;ratioP1;P2;durP2;ratioP2
33190;SDS011;19554;42.652;23.364;2023-07-31T00:00:32;4.30;;;3.42;;
33190;SDS011;19554;42.652;23.364;2023-07-31T00:02:57;7.90;;;5.22;;
33190;SDS011;19554;42.652;23.364;2023-07-31T00:05:23;4.00;;;3.60;;
33190;SDS011;19554;42.652;23.364;2023-07-31T00:07:48;4.22;;;3.80;;
33190;SDS011;19554;42.652;23.364;2023-07-31T00:10:13;5.20;;;3.72;;
33190;SDS011;19554;42.652;23.364;2023-07-31T00:12:40;4.07;;;3.55;;
33190;SDS011;19554;42.652;23.364;2023-07-31T00:15:07;5.38;;;4.28;;
33190;SDS011;19554;42.652;23.364;2023-07-31T00:17:33;5.05;;;3.83;;
33190;SDS011;19554;42.652;23.364;2023-07-31T00:19:58;4.57;;;3.38;;
33190;SDS011;19554;42.652;23.364;2023-07-31T00:22:24;4.40;;;4.00;;
33190;SDS011;19554;42.652;23.364;2023-07-31T00:24:49;4.32;;;3.85;;
33190;SDS011;19554;42.652;23.364;2023-07-31T00:27:15;6.00;;;3.85;;
33190;SDS011;19554;42.652;23.364;2023-07-31T00:29:40;5.53;;;4.80;;
33190;SDS011;19554;42.652;23.364;2023-07-31T00:32:06;5.75;;;5.15;;
33190;SDS011;19554;42.652;23.364;2023-07-31T00:34:32;4.70;;;3.92;;
33190;SDS011;19554;42.652;23.364;2023-07-31T00:36:57;6.40;;;3.97;;
33190;SDS011;19554;42.652;23.364;2023-07-31T00:39:22;5.13;;;4.40;;
33190;SDS011;19554;42.652;23.364;2023-07-31T00:41:48;5.80;;;4.72;;
33190;SDS011;19554;42.652;23.364;2023-07-31T00:44:13;7.95;;;5.75;;
33190;SDS011;19554;42.652;23.364;2023-07-31T00:46:39;6.85;;;4.90;;
33190;SDS011;19554;42.652;23.364;2023-07-31T00:49:04;4.65;;;4.25;;
33190;SDS011;19554;42.652;23.364;2023-07-31T00:51:30;8.38;;;5.63;;
33190;SDS011;19554;42.652;23.364;2023-07-31T00:53:56;7.78;;;5.13;;
33190;SDS011;19554;42.652;23.364;2023-07-31T00:56:22;6.07;;;5.22;;
33190;SDS011;19554;42.652;23.364;2023-07-31T00:58:48;6.13;;;5.38;;
33190;SDS011;19554;42.652;23.364;2023-07-31T01:01:14;10.00;;;5.80;;
33190;SDS011;19554;42.652;23.364;2023-07-31T01:03:39;9.07;;;7.50;;
33190;SDS011;19554;42.652;23.364;2023-07-31T01:06:15;7.97;;;6.72;;
33190;SDS011;19554;42.652;23.364;2023-07-31T01:11:28;6.72;;;6.13;;
33190;SDS011;19554;42.652;23.364;2023-07-31T01:13:55;6.57;;;5.93;;
33190;SDS011;19554;42.652;23.364;2023-07-31T01:16:21;9.30;;;7.25;;
33190;SDS011;19554;42.652;23.364;2023-07-31T01:18:47;9.18;;;7.55;;
33190;SDS011;19554;42.652;23.364;2023-07-31T01:24:08;8.70;;;7.80;;
33190;SDS011;19554;42.652;23.364;2023-07-31T01:26:36;9.27;;;8.40;;
33190;SDS011;19554;42.652;23.364;2023-07-31T01:29:08;10.20;;;9.18;;
33190;SDS011;19554;42.652;23.364;2023-07-31T01:31:39;16.42;;;9.88;;
33190;SDS011;19554;42.652;23.364;2023-07-31T01:34:08;12.27;;;9.95;;
33190;SDS011;19554;42.652;23.364;2023-07-31T01:36:35;12.25;;;10.13;;
33190;SDS011;19554;42.652;23.364;2023-07-31T01:39:01;12.30;;;10.70;;
33190;SDS011;19554;42.652;23.364;2023-07-31T01:41:27;14.27;;;12.23;;
33190;SDS011;19554;42.652;23.364;2023-07-31T01:43:53;13.40;;;12.00;;
33190;SDS011;19554;42.652;23.364;2023-07-31T01:46:18;14.15;;;12.75;;
33190;SDS011;19554;42.652;23.364;2023-07-31T01:48:43;15.32;;;13.82;;
33190;SDS011;19554;42.652;23.364;2023-07-31T01:51:09;16.85;;;15.07;;
33190;SDS011;19554;42.652;23.364;2023-07-31T01:53:34;18.30;;;16.50;;
33190;SDS011;19554;42.652;23.364;2023-07-31T01:56:00;18.95;;;17.13;;
33190;SDS011;19554;42.652;23.364;2023-07-31T01:58:25;19.67;;;17.42;;
33190;SDS011;19554;42.652;23.364;2023-07-31T02:00:51;20.35;;;18.08;;
33190;SDS011;19554;42.652;23.364;2023-07-31T02:03:16;21.05;;;18.88;;
33190;SDS011;19554;42.652;23.364;2023-07-31T02:05:45;21.90;;;19.50;;
33190;SDS011;19554;42.652;23.364;2023-07-31T02:08:11;23.13;;;19.13;;
33190;SDS011;19554;42.652;23.364;2023-07-31T02:10:36;21.85;;;19.65;;
33190;SDS011;19554;42.652;23.364;2023-07-31T02:13:02;21.83;;;19.63;;
33190;SDS011;19554;42.652;23.364;2023-07-31T02:15:29;24.25;;;20.77;;
33190;SDS011;19554;42.652;23.364;2023-07-31T02:17:55;23.98;;;21.42;;
33190;SDS011;19554;42.652;23.364;2023-07-31T02:20:20;22.40;;;20.00;;
33190;SDS011;19554;42.652;23.364;2023-07-31T02:22:45;22.27;;;20.08;;
33190;SDS011;19554;42.652;23.364;2023-07-31T02:25:11;21.75;;;19.40;;
33190;SDS011;19554;42.652;23.364;2023-07-31T02:27:36;21.60;;;19.08;;
33190;SDS011;19554;42.652;23.364;2023-07-31T02:30:02;21.45;;;19.25;;
33190;SDS011;19554;42.652;23.364;2023-07-31T02:32:27;26.73;;;19.55;;
33190;SDS011;19554;42.652;23.364;2023-07-31T02:34:53;21.60;;;19.30;;
33190;SDS011;19554;42.652;23.364;2023-07-31T02:37:18;22.30;;;19.48;;
33190;SDS011;19554;42.652;23.364;2023-07-31T02:39:43;22.83;;;20.38;;
33190;SDS011;19554;42.652;23.364;2023-07-31T02:42:09;21.58;;;19.27;;
33190;SDS011;19554;42.652;23.364;2023-07-31T02:44:34;22.10;;;19.77;;
33190;SDS011;19554;42.652;23.364;2023-07-31T02:46:59;21.52;;;19.38;;
33190;SDS011;19554;42.652;23.364;2023-07-31T02:49:25;22.73;;;20.40;;
33190;SDS011;19554;42.652;23.364;2023-07-31T02:51:50;21.08;;;18.90;;
33190;SDS011;19554;42.652;23.364;2023-07-31T02:54:15;21.83;;;19.58;;
33190;SDS011;19554;42.652;23.364;2023-07-31T02:56:41;21.73;;;19.52;;
33190;SDS011;19554;42.652;23.364;2023-07-31T02:59:06;22.83;;;20.42;;
33190;SDS011;19554;42.652;23.364;2023-07-31T03:01:32;22.77;;;20.38;;
33190;SDS011;19554;42.652;23.364;2023-07-31T03:03:57;21.73;;;19.33;;
33190;SDS011;19554;42.652;23.364;2023-07-31T03:06:22;22.27;;;19.98;;
33190;SDS011;19554;42.652;23.364;2023-07-31T03:08:48;22.73;;;20.23;;
33190;SDS011;19554;42.652;23.364;2023-07-31T03:11:13;22.15;;;19.88;;
33190;SDS011;19554;42.652;23.364;2023-07-31T03:13:38;23.67;;;21.25;;
33190;SDS011;19554;42.652;23.364;2023-07-31T03:16:04;23.73;;;21.13;;
33190;SDS011;19554;42.652;23.364;2023-07-31T03:18:29;27.75;;;20.38;;
33190;SDS011;19554;42.652;23.364;2023-07-31T03:20:54;26.17;;;21.15;;
33190;SDS011;19554;42.652;23.364;2023-07-31T03:23:20;22.13;;;19.80;;
33190;SDS011;19554;42.652;23.364;2023-07-31T03:25:55;25.20;;;22.48;;
33190;SDS011;19554;42.652;23.364;2023-07-31T03:28:24;23.50;;;20.77;;
33190;SDS011;19554;42.652;23.364;2023-07-31T03:30:50;23.05;;;20.65;;
33190;SDS011;19554;42.652;23.364;2023-07-31T03:33:16;24.75;;;22.08;;
33190;SDS011;19554;42.652;23.364;2023-07-31T03:35:41;24.42;;;21.85;;
33190;SDS011;19554;42.652;23.364;2023-07-31T03:38:07;25.73;;;21.48;;
33190;SDS011;19554;42.652;23.364;2023-07-31T03:40:32;23.20;;;20.70;;
33190;SDS011;19554;42.652;23.364;2023-07-31T03:42:57;22.90;;;19.98;;
33190;SDS011;19554;42.652;23.364;2023-07-31T03:45:23;23.45;;;20.23;;
33190;SDS011;19554;42.652;23.364;2023-07-31T03:47:48;23.25;;;20.75;;
33190;SDS011;19554;42.652;23.364;2023-07-31T03:50:14;28.00;;;21.70;;
33190;SDS011;19554;42.652;23.364;2023-07-31T03:52:40;24.42;;;21.67;;
33190;SDS011;19554;42.652;23.364;2023-07-31T03:55:06;24.10;;;21.48;;
33190;SDS011;19554;42.652;23.364;2023-07-31T03:57:32;25.15;;;20.52;;
33190;SDS011;19554;42.652;23.364;2023-07-31T03:59:57;28.92;;;23.15;;
33190;SDS011;19554;42.652;23.364;2023-07-31T04:02:23;24.88;;;22.25;;
33190;SDS011;19554;42.652;23.364;2023-07-31T04:04:49;26.25;;;23.38;;
33190;SDS011;19554;42.652;23.364;2023-07-31T04:07:14;26.98;;;21.70;;
33190;SDS011;19554;42.652;23.364;2023-07-31T04:09:39;28.35;;;23.35;;
33190;SDS011;19554;42.652;23.364;2023-07-31T04:12:05;25.83;;;22.52;;
33190;SDS011;19554;42.652;23.364;2023-07-31T04:14:30;26.58;;;22.60;;
33190;SDS011;19554;42.652;23.364;2023-07-31T04:16:56;30.45;;;24.48;;
33190;SDS011;19554;42.652;23.364;2023-07-31T04:19:21;26.77;;;23.05;;
33190;SDS011;19554;42.652;23.364;2023-07-31T04:21:46;31.98;;;23.90;;
33190;SDS011;19554;42.652;23.364;2023-07-31T04:24:12;27.33;;;23.83;;
33190;SDS011;19554;42.652;23.364;2023-07-31T04:26:37;31.42;;;24.30;;
33190;SDS011;19554;42.652;23.364;2023-07-31T04:29:02;32.30;;;25.17;;
33190;SDS011;19554;42.652;23.364;2023-07-31T04:31:28;29.50;;;24.55;;
33190;SDS011;19554;42.652;23.364;2023-07-31T04:33:53;31.20;;;24.80;;
33190;SDS011;19554;42.652;23.364;2023-07-31T04:36:19;28.42;;;24.23;;
33190;SDS011;19554;42.652;23.364;2023-07-31T04:38:44;27.90;;;23.02;;
33190;SDS011;19554;42.652;23.364;2023-07-31T04:41:09;28.63;;;23.88;;
33190;SDS011;19554;42.652;23.364;2023-07-31T04:43:35;27.38;;;23.77;;
33190;SDS011;19554;42.652;23.364;2023-07-31T04:46:00;26.95;;;23.33;;
33190;SDS011;19554;42.652;23.364;2023-07-31T04:48:26;26.10;;;23.23;;
33190;SDS011;19554;42.652;23.364;2023-07-31T04:50:51;27.95;;;22.67;;
33190;SDS011;19554;42.652;23.364;2023-07-31T04:53:16;26.73;;;22.95;;
33190;SDS011;19554;42.652;23.364;2023-07-31T04:55:42;25.08;;;22.38;;
33190;SDS011;19554;42.652;23.364;2023-07-31T04:58:07;24.35;;;21.15;;
33190;SDS011;19554;42.652;23.364;2023-07-31T05:00:32;26.10;;;22.50;;
33190;SDS011;19554;42.652;23.364;2023-07-31T05:02:58;22.60;;;19.73;;
33190;SDS011;19554;42.652;23.364;2023-07-31T05:05:23;25.77;;;21.15;;
33190;SDS011;19554;42.652;23.364;2023-07-31T05:07:49;27.20;;;21.67;;
33190;SDS011;19554;42.652;23.364;2023-07-31T05:10:14;26.60;;;20.77;;
33190;SDS011;19554;42.652;23.364;2023-07-31T05:12:39;25.10;;;19.58;;
33190;SDS011;19554;42.652;23.364;2023-07-31T05:15:05;23.05;;;19.55;;
33190;SDS011;19554;42.652;23.364;2023-07-31T05:17:31;23.50;;;20.92;;
33190;SDS011;19554;42.652;23.364;2023-07-31T05:19:56;22.50;;;18.83;;
33190;SDS011;19554;42.652;23.364;2023-07-31T05:22:22;21.35;;;18.58;;
33190;SDS011;19554;42.652;23.364;2023-07-31T05:24:47;21.95;;;19.17;;
33190;SDS011;19554;42.652;23.364;2023-07-31T05:27:13;22.92;;;19.00;;
33190;SDS011;19554;42.652;23.364;2023-07-31T05:29:40;21.15;;;18.45;;
33190;SDS011;19554;42.652;23.364;2023-07-31T05:32:05;22.63;;;18.17;;
33190;SDS011;19554;42.652;23.364;2023-07-31T05:34:31;20.25;;;17.00;;
33190;SDS011;19554;42.652;23.364;2023-07-31T05:36:57;19.75;;;17.60;;
33190;SDS011;19554;42.652;23.364;2023-07-31T05:39:22;19.05;;;17.05;;
33190;SDS011;19554;42.652;23.364;2023-07-31T05:41:47;17.83;;;15.98;;
33190;SDS011;19554;42.652;23.364;2023-07-31T05:44:13;17.27;;;15.48;;
33190;SDS011;19554;42.652;23.364;2023-07-31T05:46:38;15.07;;;13.50;;
33190;SDS011;19554;42.652;23.364;2023-07-31T05:49:03;17.70;;;13.10;;
33190;SDS011;19554;42.652;23.364;2023-07-31T05:51:29;14.23;;;11.60;;
33190;SDS011;19554;42.652;23.364;2023-07-31T05:53:54;15.32;;;11.40;;
33190;SDS011;19554;42.652;23.364;2023-07-31T05:56:19;14.77;;;10.90;;
33190;SDS011;19554;42.652;23.364;2023-07-31T05:58:45;12.23;;;10.63;;
33190;SDS011;19554;42.652;23.364;2023-07-31T06:01:10;10.32;;;9.38;;
33190;SDS011;19554;42.652;23.364;2023-07-31T06:03:36;12.30;;;10.07;;
33190;SDS011;19554;42.652;23.364;2023-07-31T06:06:01;10.82;;;9.73;;
33190;SDS011;19554;42.652;23.364;2023-07-31T06:08:26;10.43;;;9.43;;
33190;SDS011;19554;42.652;23.364;2023-07-31T06:10:52;10.13;;;9.13;;
33190;SDS011;19554;42.652;23.364;2023-07-31T06:13:17;11.10;;;9.18;;
33190;SDS011;19554;42.652;23.364;2023-07-31T06:15:43;9.68;;;8.20;;
33190;SDS011;19554;42.652;23.364;2023-07-31T06:18:08;10.55;;;7.55;;
33190;SDS011;19554;42.652;23.364;2023-07-31T06:20:34;7.50;;;6.80;;
33190;SDS011;19554;42.652;23.364;2023-07-31T06:22:59;9.82;;;7.50;;
33190;SDS011;19554;42.652;23.364;2023-07-31T06:25:25;8.40;;;6.35;;
33190;SDS011;19554;42.652;23.364;2023-07-31T06:27:51;7.57;;;6.20;;
33190;SDS011;19554;42.652;23.364;2023-07-31T06:30:16;7.10;;;5.90;;
33190;SDS011;19554;42.652;23.364;2023-07-31T06:32:42;7.50;;;6.10;;
33190;SDS011;19554;42.652;23.364;2023-07-31T06:35:07;5.57;;;5.07;;
33190;SDS011;19554;42.652;23.364;2023-07-31T06:37:33;5.75;;;5.20;;
33190;SDS011;19554;42.652;23.364;2023-07-31T06:39:58;7.53;;;4.88;;
33190;SDS011;19554;42.652;23.364;2023-07-31T06:42:24;5.75;;;5.25;;
33190;SDS011;19554;42.652;23.364;2023-07-31T06:44:49;6.00;;;4.78;;
33190;SDS011;19554;42.652;23.364;2023-07-31T06:47:15;6.78;;;5.38;;
33190;SDS011;19554;42.652;23.364;2023-07-31T06:49:40;5.18;;;4.78;;
33190;SDS011;19554;42.652;23.364;2023-07-31T06:52:06;6.47;;;4.85;;
33190;SDS011;19554;42.652;23.364;2023-07-31T06:54:31;5.43;;;4.93;;
33190;SDS011;19554;42.652;23.364;2023-07-31T06:56:57;7.07;;;4.95;;
33190;SDS011;19554;42.652;23.364;2023-07-31T06:59:22;8.52;;;4.80;;
33190;SDS011;19554;42.652;23.364;2023-07-31T07:01:47;8.85;;;5.13;;
33190;SDS011;19554;42.652;23.364;2023-07-31T07:04:13;5.90;;;4.35;;
33190;SDS011;19554;42.652;23.364;2023-07-31T07:06:38;5.18;;;4.10;;
33190;SDS011;19554;42.652;23.364;2023-07-31T07:09:04;5.95;;;4.53;;
33190;SDS011;19554;42.652;23.364;2023-07-31T07:11:29;6.28;;;3.97;;
33190;SDS011;19554;42.652;23.364;2023-07-31T07:13:55;5.88;;;4.22;;
33190;SDS011;19554;42.652;23.364;2023-07-31T07:16:20;4.55;;;4.07;;
33190;SDS011;19554;42.652;23.364;2023-07-31T07:18:46;4.57;;;4.05;;
33190;SDS011;19554;42.652;23.364;2023-07-31T07:21:11;4.65;;;4.18;;
33190;SDS011;19554;42.652;23.364;2023-07-31T07:23:40;4.70;;;4.30;;
33190;SDS011;19554;42.652;23.364;2023-07-31T07:26:07;4.28;;;3.88;;
33190;SDS011;19554;42.652;23.364;2023-07-31T07:28:33;5.07;;;4.40;;
33190;SDS011;19554;42.652;23.364;2023-07-31T07:30:58;4.10;;;3.70;;
33190;SDS011;19554;42.652;23.364;2023-07-31T07:33:24;3.67;;;3.17;;
33190;SDS011;19554;42.652;23.364;2023-07-31T07:35:49;4.10;;;3.35;;
33190;SDS011;19554;42.652;23.364;2023-07-31T07:38:14;4.93;;;3.50;;
33190;SDS011;19554;42.652;23.364;2023-07-31T07:40:40;4.93;;;2.83;;
33190;SDS011;19554;42.652;23.364;2023-07-31T07:43:06;6.18;;;3.10;;
33190;SDS011;19554;42.652;23.364;2023-07-31T07:45:31;3.85;;;3.35;;
33190;SDS011;19554;42.652;23.364;2023-07-31T07:47:57;6.47;;;3.63;;
33190;SDS011;19554;42.652;23.364;2023-07-31T07:50:24;7.00;;;3.80;;
33190;SDS011;19554;42.652;23.364;2023-07-31T07:52:49;5.07;;;3.42;;
33190;SDS011;19554;42.652;23.364;2023-07-31T07:55:14;6.05;;;3.80;;
33190;SDS011;19554;42.652;23.364;2023-07-31T07:57:40;4.70;;;3.90;;
33190;SDS011;19554;42.652;23.364;2023-07-31T08:00:05;6.40;;;3.25;;
33190;SDS011;19554;42.652;23.364;2023-07-31T08:02:31;3.40;;;3.10;;
33190;SDS011;19554;42.652;23.364;2023-07-31T08:04:57;5.95;;;3.42;;
33190;SDS011;19554;42.652;23.364;2023-07-31T08:07:22;3.00;;;2.55;;
33190;SDS011;19554;42.652;23.364;2023-07-31T08:09:47;7.82;;;3.80;;
33190;SDS011;19554;42.652;23.364;2023-07-31T08:12:13;3.70;;;3.13;;
33190;SDS011;19554;42.652;23.364;2023-07-31T08:14:38;3.50;;;3.20;;
33190;SDS011;19554;42.652;23.364;2023-07-31T08:17:04;6.40;;;3.42;;
33190;SDS011;19554;42.652;23.364;2023-07-31T08:19:29;5.88;;;3.22;;
33190;SDS011;19554;42.652;23.364;2023-07-31T08:21:55;6.13;;;3.63;;
33190;SDS011;19554;42.652;23.364;2023-07-31T08:24:20;5.03;;;3.20;;
33190;SDS011;19554;42.652;23.364;2023-07-31T08:26:45;10.90;;;3.67;;
33190;SDS011;19554;42.652;23.364;2023-07-31T08:29:12;5.50;;;3.50;;
33190;SDS011;19554;42.652;23.364;2023-07-31T08:31:37;7.03;;;3.80;;
33190;SDS011;19554;42.652;23.364;2023-07-31T08:34:02;4.35;;;3.83;;
33190;SDS011;19554;42.652;23.364;2023-07-31T08:36:28;3.92;;;2.92;;
33190;SDS011;19554;42.652;23.364;2023-07-31T08:38:53;7.90;;;3.75;;
33190;SDS011;19554;42.652;23.364;2023-07-31T08:41:18;5.43;;;3.47;;
33190;SDS011;19554;42.652;23.364;2023-07-31T08:43:45;4.63;;;3.10;;
33190;SDS011;19554;42.652;23.364;2023-07-31T08:46:11;4.45;;;3.05;;
33190;SDS011;19554;42.652;23.364;2023-07-31T08:48:39;4.65;;;2.72;;
33190;SDS011;19554;42.652;23.364;2023-07-31T08:51:07;9.10;;;3.70;;
33190;SDS011;19554;42.652;23.364;2023-07-31T08:53:32;4.38;;;3.45;;
33190;SDS011;19554;42.652;23.364;2023-07-31T08:55:58;6.07;;;3.45;;
33190;SDS011;19554;42.652;23.364;2023-07-31T08:58:24;3.72;;;3.17;;
33190;SDS011;19554;42.652;23.364;2023-07-31T09:00:52;3.28;;;2.92;;
33190;SDS011;19554;42.652;23.364;2023-07-31T09:03:21;6.15;;;3.50;;
33190;SDS011;19554;42.652;23.364;2023-07-31T09:05:49;5.18;;;3.40;;
33190;SDS011;19554;42.652;23.364;2023-07-31T09:08:17;4.18;;;2.60;;
33190;SDS011;19554;42.652;23.364;2023-07-31T09:10:45;6.75;;;3.05;;
33190;SDS011;19554;42.652;23.364;2023-07-31T09:13:11;5.10;;;3.22;;
33190;SDS011;19554;42.652;23.364;2023-07-31T09:15:37;4.05;;;3.00;;
33190;SDS011;19554;42.652;23.364;2023-07-31T09:18:04;4.78;;;2.85;;
33190;SDS011;19554;42.652;23.364;2023-07-31T09:20:31;5.15;;;3.13;;
33190;SDS011;19554;42.652;23.364;2023-07-31T09:23:00;3.92;;;3.38;;
33190;SDS011;19554;42.652;23.364;2023-07-31T09:25:39;9.73;;;3.20;;
33190;SDS011;19554;42.652;23.364;2023-07-31T09:28:08;4.20;;;3.60;;
33190;SDS011;19554;42.652;23.364;2023-07-31T09:30:50;3.13;;;2.80;;
33190;SDS011;19554;42.652;23.364;2023-07-31T09:33:17;3.33;;;2.70;;
33190;SDS011;19554;42.652;23.364;2023-07-31T09:35:43;5.88;;;3.30;;
33190;SDS011;19554;42.652;23.364;2023-07-31T09:38:09;6.10;;;3.47;;
33190;SDS011;19554;42.652;23.364;2023-07-31T09:40:37;4.75;;;3.22;;
33190;SDS011;19554;42.652;23.364;2023-07-31T09:43:05;7.00;;;3.20;;
33190;SDS011;19554;42.652;23.364;2023-07-31T09:45:35;3.67;;;3.38;;
33190;SDS011;19554;42.652;23.364;2023-07-31T09:48:09;5.15;;;3.67;;
33190;SDS011;19554;42.652;23.364;2023-07-31T09:50:41;6.30;;;4.25;;
33190;SDS011;19554;42.652;23.364;2023-07-31T09:53:08;4.32;;;3.42;;
33190;SDS011;19554;42.652;23.364;2023-07-31T09:55:34;18.65;;;4.72;;
33190;SDS011;19554;42.652;23.364;2023-07-31T09:58:08;9.77;;;3.50;;
33190;SDS011;19554;42.652;23.364;2023-07-31T10:00:35;5.05;;;3.58;;
33190;SDS011;19554;42.652;23.364;2023-07-31T10:03:01;8.38;;;3.83;;
33190;SDS011;19554;42.652;23.364;2023-07-31T10:05:35;4.80;;;3.20;;
33190;SDS011;19554;42.652;23.364;2023-07-31T10:08:10;5.20;;;3.30;;
33190;SDS011;19554;42.652;23.364;2023-07-31T10:10:41;4.95;;;2.95;;
33190;SDS011;19554;42.652;23.364;2023-07-31T10:13:07;5.10;;;2.83;;
33190;SDS011;19554;42.652;23.364;2023-07-31T10:15:33;4.38;;;3.30;;
33190;SDS011;19554;42.652;23.364;2023-07-31T10:17:59;5.03;;;2.90;;
33190;SDS011;19554;42.652;23.364;2023-07-31T10:20:26;3.97;;;3.00;;
33190;SDS011;19554;42.652;23.364;2023-07-31T10:22:52;4.18;;;2.60;;
33190;SDS011;19554;42.652;23.364;2023-07-31T10:25:20;4.53;;;2.88;;
33190;SDS011;19554;42.652;23.364;2023-07-31T10:27:47;3.10;;;2.80;;
33190;SDS011;19554;42.652;23.364;2023-07-31T10:30:14;3.92;;;2.67;;
33190;SDS011;19554;42.652;23.364;2023-07-31T10:32:43;3.40;;;2.80;;
33190;SDS011;19554;42.652;23.364;2023-07-31T10:35:10;3.85;;;2.50;;
33190;SDS011;19554;42.652;23.364;2023-07-31T10:37:37;6.55;;;2.70;;
33190;SDS011;19554;42.652;23.364;2023-07-31T10:40:09;12.90;;;2.83;;
33190;SDS011;19554;42.652;23.364;2023-07-31T10:42:36;5.60;;;2.75;;
33190;SDS011;19554;42.652;23.364;2023-07-31T10:45:04;3.47;;;2.95;;
33190;SDS011;19554;42.652;23.364;2023-07-31T10:47:44;6.53;;;2.80;;
33190;SDS011;19554;42.652;23.364;2023-07-31T10:50:17;3.35;;;2.70;;
33190;SDS011;19554;42.652;23.364;2023-07-31T10:52:49;4.57;;;2.85;;
33190;SDS011;19554;42.652;23.364;2023-07-31T10:55:24;3.00;;;2.70;;
33190;SDS011;19554;42.652;23.364;2023-07-31T10:57:52;4.20;;;2.75;;
33190;SDS011;19554;42.652;23.364;2023-07-31T11:00:19;4.07;;;2.50;;
33190;SDS011;19554;42.652;23.364;2023-07-31T11:02:56;5.97;;;2.72;;
33190;SDS011;19554;42.652;23.364;2023-07-31T11:08:14;2.53;;;2.25;;
33190;SDS011;19554;42.652;23.364;2023-07-31T11:10:42;4.15;;;2.55;;
33190;SDS011;19554;42.652;23.364;2023-07-31T11:13:09;4.82;;;2.25;;
33190;SDS011;19554;42.652;23.364;2023-07-31T11:15:34;2.80;;;2.50;;
33190;SDS011;19554;42.652;23.364;2023-07-31T11:18:00;3.97;;;2.42;;
33190;SDS011;19554;42.652;23.364;2023-07-31T11:20:35;3.85;;;2.30;;
33190;SDS011;19554;42.652;23.364;2023-07-31T11:23:11;2.90;;;2.22;;
33190;SDS011;19554;42.652;23.364;2023-07-31T11:25:37;2.47;;;2.22;;
33190;SDS011;19554;42.652;23.364;2023-07-31T11:28:09;2.60;;;2.38;;
33190;SDS011;19554;42.652;23.364;2023-07-31T11:30:39;2.92;;;2.47;;
33190;SDS011;19554;42.652;23.364;2023-07-31T11:33:09;2.55;;;2.35;;
33190;SDS011;19554;42.652;23.364;2023-07-31T11:35:43;6.30;;;2.28;;
33190;SDS011;19554;42.652;23.364;2023-07-31T11:38:10;5.75;;;2.13;;
33190;SDS011;19554;42.652;23.364;2023-07-31T11:40:42;6.55;;;2.40;;
33190;SDS011;19554;42.652;23.364;2023-07-31T11:43:09;3.38;;;1.90;;
33190;SDS011;19554;42.652;23.364;2023-07-31T11:45:36;2.90;;;2.60;;
33190;SDS011;19554;42.652;23.364;2023-07-31T11:48:03;6.50;;;2.55;;
33190;SDS011;19554;42.652;23.364;2023-07-31T11:50:28;4.97;;;2.30;;
33190;SDS011;19554;42.652;23.364;2023-07-31T11:52:59;5.68;;;2.95;;
33190;SDS011;19554;42.652;23.364;2023-07-31T11:55:28;4.28;;;2.90;;
33190;SDS011;19554;42.652;23.364;2023-07-31T11:57:55;2.83;;;2.60;;
33190;SDS011;19554;42.652;23.364;2023-07-31T12:00:23;2.88;;;2.67;;
33190;SDS011;19554;42.652;23.364;2023-07-31T12:02:49;5.53;;;3.30;;
33190;SDS011;19554;42.652;23.364;2023-07-31T12:05:15;6.38;;;2.60;;
33190;SDS011;19554;42.652;23.364;2023-07-31T12:10:23;3.08;;;2.75;;
33190;SDS011;19554;42.652;23.364;2023-07-31T12:12:58;4.18;;;2.70;;
33190;SDS011;19554;42.652;23.364;2023-07-31T12:15:39;2.88;;;2.40;;
33190;SDS011;19554;42.652;23.364;2023-07-31T12:20:44;3.20;;;2.90;;
33190;SDS011;19554;42.652;23.364;2023-07-31T12:23:18;4.80;;;3.30;;
33190;SDS011;19554;42.652;23.364;2023-07-31T12:25:59;4.68;;;3.55;;
33190;SDS011;19554;42.652;23.364;2023-07-31T12:28:26;3.97;;;3.55;;
33190;SDS011;19554;42.652;23.364;2023-07-31T12:30:51;3.90;;;3.30;;
33190;SDS011;19554;42.652;23.364;2023-07-31T12:33:24;6.32;;;5.38;;
33190;SDS011;19554;42.652;23.364;2023-07-31T12:35:49;6.85;;;5.65;;
33190;SDS011;19554;42.652;23.364;2023-07-31T12:38:14;5.63;;;5.05;;
33190;SDS011;19554;42.652;23.364;2023-07-31T12:40:40;7.25;;;5.80;;
33190;SDS011;19554;42.652;23.364;2023-07-31T12:43:07;7.30;;;5.38;;
33190;SDS011;19554;42.652;23.364;2023-07-31T12:45:33;6.07;;;4.88;;
33190;SDS011;19554;42.652;23.364;2023-07-31T12:47:59;5.43;;;4.93;;
33190;SDS011;19554;42.652;23.364;2023-07-31T12:50:25;5.07;;;4.57;;
33190;SDS011;19554;42.652;23.364;2023-07-31T12:52:52;5.30;;;4.80;;
33190;SDS011;19554;42.652;23.364;2023-07-31T12:55:18;5.65;;;4.25;;
33190;SDS011;19554;42.652;23.364;2023-07-31T12:57:44;5.07;;;4.57;;
33190;SDS011;19554;42.652;23.364;2023-07-31T13:00:10;5.15;;;4.45;;
33190;SDS011;19554;42.652;23.364;2023-07-31T13:02:36;5.47;;;4.97;;
33190;SDS011;19554;42.652;23.364;2023-07-31T13:05:01;5.60;;;4.97;;
33190;SDS011;19554;42.652;23.364;2023-07-31T13:07:27;5.78;;;5.28;;
33190;SDS011;19554;42.652;23.364;2023-07-31T13:09:52;5.93;;;5.32;;
33190;SDS011;19554;42.652;23.364;2023-07-31T13:12:17;8.35;;;5.80;;
33190;SDS011;19554;42.652;23.364;2023-07-31T13:14:43;6.82;;;5.88;;
33190;SDS011;19554;42.652;23.364;2023-07-31T13:17:08;6.70;;;5.50;;
33190;SDS011;19554;42.652;23.364;2023-07-31T13:19:33;5.65;;;5.15;;
33190;SDS011;19554;42.652;23.364;2023-07-31T13:21:59;9.80;;;6.40;;
33190;SDS011;19554;42.652;23.364;2023-07-31T13:24:24;7.38;;;5.95;;
33190;SDS011;19554;42.652;23.364;2023-07-31T13:26:50;11.43;;;5.65;;
33190;SDS011;19554;42.652;23.364;2023-07-31T13:29:15;5.32;;;4.82;;
33190;SDS011;19554;42.652;23.364;2023-07-31T13:31:40;7.18;;;5.90;;
33190;SDS011;19554;42.652;23.364;2023-07-31T13:34:06;6.53;;;5.70;;
33190;SDS011;19554;42.652;23.364;2023-07-31T13:36:31;6.00;;;5.35;;
33190;SDS011;19554;42.652;23.364;2023-07-31T13:38:59;6.05;;;4.70;;
33190;SDS011;19554;42.652;23.364;2023-07-31T13:41:24;5.32;;;4.82;;
33190;SDS011;19554;42.652;23.364;2023-07-31T13:43:49;5.38;;;4.25;;
33190;SDS011;19554;42.652;23.364;2023-07-31T13:46:15;4.97;;;4.47;;
33190;SDS011;19554;42.652;23.364;2023-07-31T13:48:40;4.47;;;4.05;;
33190;SDS011;19554;42.652;23.364;2023-07-31T13:51:05;5.43;;;4.70;;
33190;SDS011;19554;42.652;23.364;2023-07-31T13:53:31;5.25;;;4.75;;
33190;SDS011;19554;42.652;23.364;2023-07-31T13:55:56;8.18;;;4.03;;
33190;SDS011;19554;42.652;23.364;2023-07-31T13:58:22;6.78;;;5.05;;
33190;SDS011;19554;42.652;23.364;2023-07-31T14:00:47;5.97;;;4.55;;
33190;SDS011;19554;42.652;23.364;2023-07-31T14:03:12;9.80;;;5.07;;
33190;SDS011;19554;42.652;23.364;2023-07-31T14:05:38;5.20;;;4.70;;
33190;SDS011;19554;42.652;23.364;2023-07-31T14:08:03;4.95;;;4.50;;
33190;SDS011;19554;42.652;23.364;2023-07-31T14:10:29;5.40;;;3.80;;
33190;SDS011;19554;42.652;23.364;2023-07-31T14:12:54;4.53;;;4.13;;
33190;SDS011;19554;42.652;23.364;2023-07-31T14:15:19;7.07;;;4.43;;
33190;SDS011;19554;42.652;23.364;2023-07-31T14:17:45;5.75;;;4.38;;
33190;SDS011;19554;42.652;23.364;2023-07-31T14:20:10;7.25;;;4.55;;
33190;SDS011;19554;42.652;23.364;2023-07-31T14:22:37;4.93;;;4.43;;
33190;SDS011;19554;42.652;23.364;2023-07-31T14:25:03;4.93;;;4.28;;
33190;SDS011;19554;42.652;23.364;2023-07-31T14:27:29;5.40;;;4.22;;
33190;SDS011;19554;42.652;23.364;2023-07-31T14:29:55;8.88;;;5.05;;
33190;SDS011;19554;42.652;23.364;2023-07-31T14:32:21;5.93;;;4.88;;
33190;SDS011;19554;42.652;23.364;2023-07-31T14:34:48;6.18;;;5.00;;